Time;durP1;ratioP1;P1;durP2;ratioP2;P2;SDS_P1;SDS_P2;PMS_P1;PMS_P2;Temp;Humidity;BMP_temperature;BMP_pressure;BME280_temperature;BME280_humidity;BME280_pressure;Samples;Min_cycle;Max_cycle;Signal;HPM_P1;HPM_P2
2022/10/21 00:00:51;;;;;;;9.43;8.13;;;18.30;71.80;;;;;;5036941;28;20451;-82
2022/10/21 00:03:19;;;;;;;9.67;8.67;;;18.30;71.70;;;;;;5037053;28;20467;-82
2022/10/21 00:05:47;;;;;;;11.60;8.47;;;18.30;71.70;;;;;;5037007;28;20448;-84
2022/10/21 00:08:18;;;;;;;10.90;8.10;;;18.30;71.70;;;;;;5039244;28;20454;-82
2022/10/21 00:10:46;;;;;;;9.77;7.90;;;18.30;71.70;;;;;;5025843;28;20464;-83
2022/10/21 00:13:14;;;;;;;9.90;7.30;;;18.30;71.80;;;;;;5028943;28;20459;-83
2022/10/21 00:15:42;;;;;;;9.17;7.33;;;18.30;71.70;;;;;;5024923;28;20463;-83
2022/10/21 00:18:10;;;;;;;10.00;8.00;;;18.30;71.90;;;;;;5035609;28;20459;-83
2022/10/21 00:20:40;;;;;;;11.53;8.30;;;18.30;72.00;;;;;;5037014;28;20463;-83
2022/10/21 00:23:07;;;;;;;10.53;7.90;;;18.30;72.00;;;;;;5035829;28;20852;-83
2022/10/21 00:25:38;;;;;;;9.27;7.83;;;18.30;72.00;;;;;;5036384;28;20451;-82
2022/10/21 00:28:05;;;;;;;9.77;8.17;;;18.30;72.10;;;;;;5036574;28;20451;-83
2022/10/21 00:30:33;;;;;;;11.40;7.70;;;18.30;72.10;;;;;;5029011;28;20462;-83
2022/10/21 00:33:01;;;;;;;9.30;7.47;;;18.30;72.00;;;;;;5036417;28;20475;-83
2022/10/21 00:35:33;;;;;;;10.37;8.03;;;18.30;72.00;;;;;;5036711;28;20458;-83
2022/10/21 00:38:01;;;;;;;9.80;7.60;;;18.30;72.00;;;;;;5027342;28;20464;-82
2022/10/21 00:40:29;;;;;;;11.00;7.60;;;18.30;72.00;;;;;;5036318;28;20522;-83
2022/10/21 00:42:58;;;;;;;8.60;7.30;;;18.30;72.10;;;;;;5036749;28;20452;-82
2022/10/21 00:45:26;;;;;;;7.83;7.03;;;18.30;72.10;;;;;;5036292;28;20452;-82
2022/10/21 00:47:57;;;;;;;8.27;7.33;;;18.30;72.10;;;;;;5036337;28;20439;-83
2022/10/21 00:50:28;;;;;;;9.27;7.33;;;18.40;72.30;;;;;;5036377;28;20462;-83
2022/10/21 00:52:56;;;;;;;9.10;7.20;;;18.30;72.10;;;;;;5036168;28;20962;-83
2022/10/21 00:55:24;;;;;;;7.63;6.93;;;18.30;72.20;;;;;;5036247;28;20450;-82
2022/10/21 00:57:52;;;;;;;7.27;6.53;;;18.30;72.30;;;;;;5036330;28;20997;-82
2022/10/21 01:00:21;;;;;;;8.10;6.67;;;18.30;72.40;;;;;;5035592;28;20554;-84
2022/10/21 01:02:49;;;;;;;7.60;6.63;;;18.30;72.40;;;;;;5035840;28;20460;-85
2022/10/21 01:05:17;;;;;;;8.23;7.30;;;18.30;72.30;;;;;;5035678;28;20450;-82
2022/10/21 01:07:46;;;;;;;8.20;7.17;;;18.30;72.40;;;;;;5035266;28;20459;-82
2022/10/21 01:10:15;;;;;;;7.90;6.90;;;18.20;72.40;;;;;;5033224;28;20459;-82
2022/10/21 01:12:48;;;;;;;9.63;6.50;;;18.20;72.50;;;;;;5017131;28;20460;-82
2022/10/21 01:15:18;;;;;;;7.40;6.50;;;18.30;72.60;;;;;;5027023;28;20452;-81
2022/10/21 01:17:50;;;;;;;7.43;6.70;;;18.20;72.60;;;;;;5037234;28;20470;-82
2022/10/21 01:20:48;;;;;;;9.07;6.33;;;18.20;72.70;;;;;;5035106;28;20981;-84
2022/10/21 01:23:41;;;;;;;7.93;6.77;;;18.20;72.80;;;;;;5034838;28;20475;-82
2022/10/21 01:26:19;;;;;;;7.07;6.30;;;18.20;72.80;;;;;;5037483;28;20447;-81
2022/10/21 01:28:53;;;;;;;6.77;6.00;;;18.20;73.00;;;;;;5036260;28;20443;-82
2022/10/21 01:31:24;;;;;;;7.60;6.80;;;18.20;72.90;;;;;;5036373;28;20462;-82
2022/10/21 01:33:53;;;;;;;7.37;6.67;;;18.10;73.00;;;;;;5035977;28;20455;-82
2022/10/21 01:36:27;;;;;;;8.07;6.60;;;18.10;73.10;;;;;;5034169;28;20476;-82
2022/10/21 01:39:07;;;;;;;6.60;5.93;;;18.10;73.10;;;;;;5035932;28;20462;-83
2022/10/21 01:41:36;;;;;;;7.60;6.80;;;18.10;73.20;;;;;;5035499;28;20439;-82
2022/10/21 01:44:06;;;;;;;7.33;6.50;;;18.10;73.40;;;;;;5035872;28;20446;-82
2022/10/21 01:46:37;;;;;;;7.00;6.30;;;18.10;73.40;;;;;;5035612;28;20452;-82
2022/10/21 01:49:09;;;;;;;8.97;6.70;;;18.10;73.50;;;;;;5036007;28;20424;-82
2022/10/21 01:51:38;;;;;;;8.50;6.03;;;18.00;73.40;;;;;;5026768;28;20511;-83
2022/10/21 01:54:07;;;;;;;8.10;6.43;;;18.00;73.60;;;;;;5034656;28;20435;-83
2022/10/21 01:56:35;;;;;;;6.90;6.13;;;18.00;73.60;;;;;;5035264;28;20502;-84
2022/10/21 01:59:02;;;;;;;7.30;6.60;;;18.00;73.70;;;;;;5035240;28;20455;-83
2022/10/21 02:01:31;;;;;;;6.60;5.93;;;18.00;73.70;;;;;;5034683;28;20467;-83
2022/10/21 02:04:01;;;;;;;6.10;5.60;;;18.00;73.80;;;;;;5020371;28;20484;-83
2022/10/21 02:06:28;;;;;;;7.57;5.77;;;18.00;73.70;;;;;;5033489;28;20460;-82
2022/10/21 02:08:56;;;;;;;9.50;6.43;;;18.00;73.90;;;;;;5035069;28;20432;-83
2022/10/21 02:11:25;;;;;;;6.70;6.10;;;18.00;74.00;;;;;;5033155;28;20451;-82
2022/10/21 02:13:56;;;;;;;6.30;5.70;;;18.00;73.90;;;;;;5025687;28;20463;-82
2022/10/21 02:16:25;;;;;;;6.83;6.10;;;18.00;73.90;;;;;;5034990;28;20451;-83
2022/10/21 02:18:54;;;;;;;6.60;5.80;;;17.90;74.00;;;;;;5034092;28;20942;-83
2022/10/21 02:21:24;;;;;;;6.40;5.80;;;17.90;74.00;;;;;;5028395;28;20946;-83
2022/10/21 02:23:53;;;;;;;7.13;6.43;;;17.90;74.00;;;;;;5034624;28;20464;-83
2022/10/21 02:26:21;;;;;;;6.73;5.67;;;17.90;74.00;;;;;;5034824;28;20935;-82
2022/10/21 02:28:49;;;;;;;6.33;5.73;;;17.90;74.10;;;;;;5035252;28;20455;-82
2022/10/21 02:31:25;;;;;;;6.27;5.77;;;17.90;74.10;;;;;;5034726;28;20454;-82
2022/10/21 02:33:59;;;;;;;6.70;5.80;;;17.90;74.20;;;;;;5035485;28;20431;-82
2022/10/21 02:36:33;;;;;;;6.70;5.80;;;17.90;74.20;;;;;;5029539;28;20458;-82
2022/10/21 02:39:03;;;;;;;6.37;5.77;;;17.90;74.30;;;;;;5033582;28;20446;-82
2022/10/21 02:41:31;;;;;;;6.27;5.67;;;17.90;74.40;;;;;;5033590;28;20455;-82
2022/10/21 02:44:00;;;;;;;6.70;5.67;;;17.90;74.30;;;;;;5034790;28;20462;-81
2022/10/21 02:46:34;;;;;;;5.47;4.97;;;17.90;74.30;;;;;;5028925;28;20448;-81
2022/10/21 02:49:03;;;;;;;6.17;5.57;;;17.90;74.30;;;;;;5033885;28;20426;-82
2022/10/21 02:51:32;;;;;;;7.30;5.37;;;17.90;74.30;;;;;;5032832;28;20458;-82
2022/10/21 02:54:00;;;;;;;7.90;5.60;;;17.90;74.30;;;;;;5035203;28;20447;-82
2022/10/21 02:56:28;;;;;;;5.77;5.27;;;17.90;74.30;;;;;;5034623;28;20459;-82
2022/10/21 02:58:57;;;;;;;5.87;5.27;;;17.90;74.30;;;;;;5032657;28;20567;-83
2022/10/21 03:01:25;;;;;;;6.47;5.40;;;17.90;74.30;;;;;;5031157;28;20462;-82
2022/10/21 03:03:53;;;;;;;6.23;5.60;;;17.90;74.30;;;;;;5038209;28;20455;-81
2022/10/21 03:06:21;;;;;;;5.80;5.20;;;17.90;74.30;;;;;;5031982;28;20451;-83
2022/10/21 03:08:51;;;;;;;6.40;5.80;;;17.90;74.30;;;;;;5027620;28;20427;-83
2022/10/21 03:11:19;;;;;;;6.43;5.20;;;17.90;74.40;;;;;;5030336;28;20448;-83
2022/10/21 03:13:47;;;;;;;5.83;5.33;;;17.90;74.40;;;;;;5037991;28;20479;-82
2022/10/21 03:16:15;;;;;;;5.47;4.97;;;17.90;74.40;;;;;;5032711;28;20455;-83
2022/10/21 03:18:43;;;;;;;6.13;5.53;;;17.90;74.60;;;;;;5038041;28;20585;-83
2022/10/21 03:21:12;;;;;;;5.60;5.10;;;17.90;74.50;;;;;;5038186;28;20462;-83
2022/10/21 03:23:40;;;;;;;5.77;5.27;;;17.90;74.60;;;;;;5038567;28;20474;-83
2022/10/21 03:26:09;;;;;;;5.67;5.17;;;17.90;74.60;;;;;;5038791;28;20514;-83
2022/10/21 03:28:38;;;;;;;10.93;5.47;;;17.90;74.60;;;;;;5038689;28;20430;-82
2022/10/21 03:31:06;;;;;;;5.97;5.47;;;17.90;74.60;;;;;;5037337;28;20451;-82
2022/10/21 03:33:33;;;;;;;5.47;4.90;;;17.90;74.70;;;;;;5023497;28;20864;-83
2022/10/21 03:36:01;;;;;;;5.70;5.10;;;17.90;74.70;;;;;;5037612;28;20443;-80
2022/10/21 03:38:29;;;;;;;5.60;4.90;;;17.80;74.50;;;;;;5038178;28;20478;-81
2022/10/21 03:40:57;;;;;;;6.13;4.70;;;17.90;74.70;;;;;;5038251;28;20458;-82
2022/10/21 03:43:26;;;;;;;6.70;5.00;;;17.90;74.90;;;;;;5037753;28;20470;-82
2022/10/21 03:45:54;;;;;;;5.23;4.80;;;17.90;74.90;;;;;;5034552;28;20464;-82
2022/10/21 03:48:22;;;;;;;5.40;4.90;;;17.90;74.80;;;;;;5037546;28;20439;-81
2022/10/21 03:50:50;;;;;;;5.17;4.77;;;17.90;74.90;;;;;;5037746;28;20455;-82
2022/10/21 03:53:18;;;;;;;5.37;4.90;;;17.80;74.80;;;;;;5037621;28;20463;-82
2022/10/21 03:56:07;;;;;;;5.50;5.00;;;17.90;75.00;;;;;;5037790;28;20448;-82
2022/10/21 03:58:36;;;;;;;4.53;4.13;;;17.90;75.00;;;;;;5037531;28;20476;-81
2022/10/21 04:01:04;;;;;;;5.20;4.67;;;17.80;74.90;;;;;;5033949;28;20451;-82
2022/10/21 04:03:32;;;;;;;5.50;5.00;;;17.90;75.10;;;;;;5040315;28;20450;-80
2022/10/21 04:06:00;;;;;;;5.83;5.23;;;17.90;75.10;;;;;;5037722;28;20442;-83
2022/10/21 04:08:28;;;;;;;7.40;4.83;;;17.90;75.00;;;;;;5038985;28;20457;-83
2022/10/21 04:10:57;;;;;;;5.17;4.77;;;17.80;75.00;;;;;;5037320;28;20516;-82
2022/10/21 04:13:25;;;;;;;5.13;4.73;;;17.90;75.10;;;;;;5034377;28;20471;-82
2022/10/21 04:15:58;;;;;;;5.33;4.83;;;17.90;75.10;;;;;;5028802;28;20543;-81
2022/10/21 04:18:26;;;;;;;5.30;4.90;;;17.80;75.00;;;;;;5036126;28;20467;-82
2022/10/21 04:20:54;;;;;;;4.87;4.37;;;17.90;75.20;;;;;;5039834;28;20462;-82
2022/10/21 04:23:22;;;;;;;6.00;5.20;;;17.90;75.40;;;;;;5037657;28;20483;-82
2022/10/21 04:25:50;;;;;;;5.23;4.83;;;17.90;75.10;;;;;;5022934;28;20441;-82
2022/10/21 04:28:18;;;;;;;5.40;4.90;;;17.90;75.10;;;;;;5029602;28;20451;-82
2022/10/21 04:30:47;;;;;;;4.63;4.33;;;17.80;75.00;;;;;;5017253;28;20520;-82
2022/10/21 04:33:16;;;;;;;6.23;4.63;;;17.90;75.10;;;;;;5036515;28;20482;-82
2022/10/21 04:35:44;;;;;;;5.83;5.23;;;17.90;75.10;;;;;;5035995;28;20457;-81
2022/10/21 04:38:12;;;;;;;4.97;4.57;;;17.90;75.10;;;;;;5033905;28;20475;-82
2022/10/21 04:40:41;;;;;;;4.80;4.40;;;17.90;75.10;;;;;;5037777;28;20448;-82
2022/10/21 04:43:09;;;;;;;6.10;5.33;;;17.80;75.00;;;;;;5026034;28;20469;-82
2022/10/21 04:45:38;;;;;;;6.03;4.77;;;17.90;75.10;;;;;;5028229;28;20455;-82
2022/10/21 04:48:07;;;;;;;4.90;4.50;;;17.90;75.10;;;;;;5028942;28;20470;-82
2022/10/21 04:50:36;;;;;;;5.37;4.90;;;17.90;75.10;;;;;;5036230;28;20462;-81
2022/10/21 04:53:04;;;;;;;5.20;4.80;;;17.90;75.00;;;;;;5036707;28;20455;-82
2022/10/21 04:55:32;;;;;;;10.40;4.40;;;17.90;75.00;;;;;;5036351;28;20451;-82
2022/10/21 04:58:00;;;;;;;4.40;4.10;;;17.90;75.10;;;;;;5036394;28;20530;-82
2022/10/21 05:00:28;;;;;;;4.70;4.30;;;17.90;75.10;;;;;;5037616;28;20439;-82
2022/10/21 05:02:57;;;;;;;4.77;4.37;;;17.90;75.10;;;;;;5036466;28;20463;-82
2022/10/21 05:05:25;;;;;;;5.00;4.63;;;17.90;75.10;;;;;;5021493;28;20451;-82
2022/10/21 05:07:55;;;;;;;5.30;4.80;;;17.90;75.10;;;;;;5035960;28;20462;-82
2022/10/21 05:10:24;;;;;;;4.67;4.33;;;17.90;75.10;;;;;;5036749;28;20449;-82
2022/10/21 05:12:52;;;;;;;5.63;4.80;;;17.90;75.10;;;;;;5035216;28;20471;-82
2022/10/21 05:15:20;;;;;;;5.17;4.67;;;17.90;75.10;;;;;;5035315;28;20436;-81
2022/10/21 05:17:48;;;;;;;4.90;4.50;;;17.90;75.00;;;;;;5034748;28;20454;-81
2022/10/21 05:20:16;;;;;;;5.20;4.63;;;17.90;75.10;;;;;;5035232;28;20478;-82
2022/10/21 05:22:45;;;;;;;5.13;4.63;;;17.90;75.00;;;;;;5034608;28;20488;-83
2022/10/21 05:25:14;;;;;;;4.53;4.23;;;17.90;75.00;;;;;;5028114;28;20447;-82
2022/10/21 05:27:42;;;;;;;4.60;4.27;;;17.90;75.10;;;;;;5040491;28;20465;-83
2022/10/21 05:30:11;;;;;;;4.40;4.10;;;17.90;75.10;;;;;;5035864;28;20450;-83
2022/10/21 05:32:39;;;;;;;4.40;4.10;;;17.90;75.20;;;;;;5036258;28;20468;-83
2022/10/21 05:35:08;;;;;;;4.50;4.20;;;17.90;75.30;;;;;;5036222;28;20451;-82
2022/10/21 05:37:36;;;;;;;4.87;4.47;;;17.90;75.10;;;;;;5034589;28;20462;-82
2022/10/21 05:40:05;;;;;;;5.00;4.17;;;17.90;75.10;;;;;;5035213;28;20478;-83
2022/10/21 05:42:34;;;;;;;4.77;4.43;;;17.90;75.10;;;;;;5035868;28;20475;-82
2022/10/21 05:45:02;;;;;;;5.40;4.20;;;17.90;75.10;;;;;;5035351;28;20478;-83
2022/10/21 05:47:30;;;;;;;4.70;4.30;;;17.90;75.10;;;;;;5036096;28;20443;-82
2022/10/21 05:49:58;;;;;;;4.90;4.50;;;17.90;75.10;;;;;;5031369;28;20450;-83
2022/10/21 05:52:26;;;;;;;4.50;4.20;;;17.90;75.10;;;;;;5040663;28;20471;-83
2022/10/21 05:54:54;;;;;;;4.97;4.47;;;17.90;75.00;;;;;;5035627;28;20518;-83
2022/10/21 05:57:22;;;;;;;4.17;3.87;;;17.90;75.10;;;;;;5023029;28;20452;-82
2022/10/21 05:59:51;;;;;;;4.73;4.20;;;17.90;75.10;;;;;;5030764;28;20478;-83
2022/10/21 06:02:20;;;;;;;4.20;3.90;;;17.90;75.10;;;;;;5035392;28;20470;-81
2022/10/21 06:04:47;;;;;;;4.83;4.43;;;17.90;75.10;;;;;;5035515;28;20447;-82
2022/10/21 06:07:15;;;;;;;5.40;4.90;;;17.90;75.20;;;;;;5035068;28;20469;-82
2022/10/21 06:09:43;;;;;;;4.90;4.50;;;17.90;75.30;;;;;;5032817;28;20458;-83
2022/10/21 06:12:11;;;;;;;5.07;4.63;;;17.90;75.40;;;;;;5031305;28;21004;-82
2022/10/21 06:14:40;;;;;;;5.73;4.47;;;17.90;75.40;;;;;;5033895;28;20489;-82
2022/10/21 06:17:09;;;;;;;4.27;3.97;;;17.90;75.40;;;;;;5026208;28;20451;-82
2022/10/21 06:19:37;;;;;;;5.03;4.60;;;17.90;75.50;;;;;;5034538;28;20477;-82
2022/10/21 06:22:05;;;;;;;4.37;4.07;;;17.90;75.50;;;;;;5029691;28;20467;-82
2022/10/21 06:24:33;;;;;;;4.40;4.10;;;17.90;75.50;;;;;;5033607;28;20470;-83
2022/10/21 06:27:01;;;;;;;4.27;3.87;;;17.90;75.40;;;;;;5035220;28;20486;-82
2022/10/21 06:29:29;;;;;;;4.30;3.80;;;17.90;75.40;;;;;;5033998;28;20436;-81
2022/10/21 06:31:57;;;;;;;4.80;4.40;;;17.90;75.50;;;;;;5026523;28;20535;-82
2022/10/21 06:34:27;;;;;;;4.27;3.87;;;17.90;75.50;;;;;;5030357;28;20444;-83
2022/10/21 06:36:55;;;;;;;5.80;4.97;;;17.90;75.40;;;;;;5038737;28;20443;-82
2022/10/21 06:39:24;;;;;;;4.50;4.20;;;17.90;75.50;;;;;;5038661;28;20490;-83
2022/10/21 06:41:51;;;;;;;4.17;3.87;;;17.90;75.40;;;;;;5032179;28;20479;-83
2022/10/21 06:44:20;;;;;;;4.40;4.10;;;17.90;75.50;;;;;;5023566;28;20451;-80
2022/10/21 06:46:48;;;;;;;4.87;4.43;;;17.90;75.40;;;;;;5039673;28;20451;-83
2022/10/21 06:49:16;;;;;;;4.80;4.40;;;17.90;75.40;;;;;;5039547;28;20439;-83
2022/10/21 06:51:46;;;;;;;4.60;4.20;;;17.90;75.50;;;;;;5038568;28;20558;-83
2022/10/21 06:54:14;;;;;;;5.10;4.60;;;17.90;75.60;;;;;;5018925;28;20456;-80
2022/10/21 06:56:42;;;;;;;4.17;3.87;;;18.00;75.60;;;;;;5019450;28;20452;-82
2022/10/21 06:59:10;;;;;;;4.87;4.47;;;18.00;75.50;;;;;;5027661;28;20463;-82
2022/10/21 07:01:38;;;;;;;23.13;12.70;;;18.00;75.60;;;;;;5049322;28;20458;-84
2022/10/21 07:04:26;;;;;;;24.07;13.23;;;17.30;80.30;;;;;;5038846;28;20444;-83
2022/10/21 07:06:56;;;;;;;30.47;17.87;;;16.80;84.20;;;;;;5043427;28;20450;-83
2022/10/21 07:09:24;;;;;;;26.27;16.37;;;16.60;85.60;;;;;;5043812;28;20438;-83
2022/10/21 07:11:52;;;;;;;26.50;16.43;;;16.20;90.60;;;;;;5049576;28;20479;-82
2022/10/21 07:14:20;;;;;;;26.10;15.97;;;16.20;91.10;;;;;;5050129;28;20450;-83
2022/10/21 07:16:50;;;;;;;29.40;18.10;;;16.20;91.80;;;;;;5040369;28;20461;-82
2022/10/21 07:19:18;;;;;;;23.20;15.27;;;16.20;92.00;;;;;;5035457;28;20515;-84
2022/10/21 07:21:46;;;;;;;21.43;13.70;;;16.40;92.90;;;;;;5042207;28;20475;-82
2022/10/21 07:24:15;;;;;;;20.43;13.30;;;16.80;92.50;;;;;;5038352;28;20454;-82
2022/10/21 07:26:48;;;;;;;17.57;12.17;;;17.10;91.50;;;;;;5036280;28;20460;-83
2022/10/21 07:29:16;;;;;;;20.50;11.23;;;17.30;90.50;;;;;;5046319;28;20443;-82
2022/10/21 07:31:44;;;;;;;14.50;10.97;;;17.60;89.70;;;;;;5044866;28;20467;-83
2022/10/21 07:34:12;;;;;;;14.40;10.83;;;17.60;88.50;;;;;;5044880;28;20451;-82
2022/10/21 07:36:46;;;;;;;14.03;10.20;;;17.70;87.50;;;;;;5048927;28;20444;-82
2022/10/21 07:39:17;;;;;;;13.93;9.80;;;17.80;86.80;;;;;;5049095;28;20514;-81
2022/10/21 07:41:46;;;;;;;25.53;10.77;;;17.80;86.10;;;;;;5048303;28;20467;-81
2022/10/21 07:44:14;;;;;;;10.60;9.10;;;17.80;85.50;;;;;;5048019;28;20440;-81
2022/10/21 07:46:43;;;;;;;16.90;9.87;;;17.90;85.10;;;;;;5035957;28;20511;-80
2022/10/21 07:49:11;;;;;;;15.00;9.33;;;17.90;84.50;;;;;;5030115;28;20423;-82
2022/10/21 07:51:39;;;;;;;18.37;9.50;;;18.00;84.10;;;;;;5038153;28;20443;-81
2022/10/21 07:54:07;;;;;;;14.03;9.13;;;18.00;83.60;;;;;;5037716;28;20431;-81
2022/10/21 07:56:37;;;;;;;17.97;10.47;;;18.00;83.30;;;;;;5037516;28;20444;-82
2022/10/21 07:59:05;;;;;;;14.70;10.07;;;18.10;82.80;;;;;;5037398;28;20443;-82
2022/10/21 08:01:40;;;;;;;12.47;8.80;;;18.10;82.40;;;;;;5036782;28;20475;-81
2022/10/21 08:04:09;;;;;;;14.90;9.87;;;18.20;82.00;;;;;;5037155;28;20439;-81
2022/10/21 08:06:37;;;;;;;11.03;9.20;;;18.20;81.70;;;;;;5037819;28;20534;-83
2022/10/21 08:09:05;;;;;;;12.80;9.10;;;18.30;81.50;;;;;;5039292;28;20439;-82
2022/10/21 08:11:34;;;;;;;16.33;10.00;;;18.30;81.00;;;;;;5037331;28;20451;-82
2022/10/21 08:14:05;;;;;;;16.97;9.33;;;18.40;80.90;;;;;;5037889;28;20448;-82
2022/10/21 08:16:34;;;;;;;12.30;9.43;;;18.50;80.80;;;;;;5036960;28;20442;-82
2022/10/21 08:19:02;;;;;;;12.87;9.60;;;18.60;80.50;;;;;;5037176;28;20451;-82
2022/10/21 08:21:30;;;;;;;11.27;9.00;;;18.70;80.30;;;;;;5037122;28;20551;-82
2022/10/21 08:23:58;;;;;;;14.27;8.73;;;18.90;80.00;;;;;;5035852;28;20451;-80
2022/10/21 08:26:26;;;;;;;11.73;8.70;;;19.10;80.00;;;;;;5036856;28;20447;-82
2022/10/21 08:28:54;;;;;;;10.60;8.40;;;19.20;79.40;;;;;;5036671;28;20938;-83
2022/10/21 08:31:27;;;;;;;13.07;8.43;;;19.40;79.20;;;;;;5036339;28;20509;-81
2022/10/21 08:33:55;;;;;;;13.63;8.27;;;19.60;79.00;;;;;;5036407;28;20451;-82
2022/10/21 08:36:24;;;;;;;13.10;8.60;;;19.80;78.60;;;;;;5036419;28;20456;-80
2022/10/21 08:38:53;;;;;;;13.67;8.90;;;20.00;78.30;;;;;;5035537;28;20454;-81
2022/10/21 08:41:43;;;;;;;11.43;8.73;;;20.30;78.40;;;;;;5035223;28;20473;-81
2022/10/21 08:44:14;;;;;;;11.00;8.33;;;20.40;78.10;;;;;;5035792;28;20447;-83
2022/10/21 08:46:46;;;;;;;11.47;8.27;;;20.70;77.60;;;;;;5035691;28;20443;-81
2022/10/21 08:49:17;;;;;;;11.73;8.07;;;20.90;77.50;;;;;;5036561;28;20440;-82
2022/10/21 08:51:54;;;;;;;10.30;7.90;;;21.10;77.30;;;;;;5036956;28;20498;-82
2022/10/21 08:54:23;;;;;;;13.10;8.30;;;21.30;77.50;;;;;;5037052;28;20443;-82
2022/10/21 08:56:52;;;;;;;9.43;8.43;;;21.50;77.10;;;;;;5036075;28;20458;-82
2022/10/21 08:59:22;;;;;;;13.73;8.20;;;21.70;76.30;;;;;;5035585;28;20447;-82
2022/10/21 09:01:54;;;;;;;10.00;8.00;;;21.90;76.20;;;;;;5035389;28;20486;-79
2022/10/21 09:04:27;;;;;;;11.13;7.40;;;22.00;76.10;;;;;;5035318;28;20416;-81
2022/10/21 09:06:57;;;;;;;8.43;7.63;;;22.10;76.10;;;;;;5034788;28;20454;-80
2022/10/21 09:09:26;;;;;;;9.47;7.63;;;22.20;76.00;;;;;;5034780;28;20443;-82
2022/10/21 09:12:00;;;;;;;9.63;8.07;;;22.20;75.90;;;;;;5035114;28;20471;-82
2022/10/21 09:14:50;;;;;;;8.20;7.40;;;22.30;75.70;;;;;;5034965;28;20454;-81
2022/10/21 09:17:43;;;;;;;10.73;8.00;;;22.30;75.80;;;;;;5034722;28;20444;-82
2022/10/21 09:20:17;;;;;;;8.87;7.70;;;22.50;76.10;;;;;;5014945;28;20513;-80
2022/10/21 09:22:50;;;;;;;9.73;8.10;;;22.70;76.40;;;;;;5015069;28;20476;-81
2022/10/21 09:25:21;;;;;;;8.53;7.23;;;22.80;76.20;;;;;;5016109;28;20448;-81
2022/10/21 09:27:49;;;;;;;11.00;7.13;;;23.00;75.90;;;;;;5016915;28;20452;-81
2022/10/21 09:30:23;;;;;;;7.90;6.93;;;23.20;76.00;;;;;;5016156;28;20444;-82
2022/10/21 09:32:56;;;;;;;9.40;7.40;;;23.30;75.70;;;;;;5015315;28;20551;-81
2022/10/21 09:35:28;;;;;;;9.30;7.13;;;23.40;75.40;;;;;;5015422;28;20451;-81
2022/10/21 09:37:57;;;;;;;8.13;7.20;;;23.50;75.40;;;;;;5015193;28;20415;-82
2022/10/21 09:40:27;;;;;;;8.70;6.90;;;23.60;75.10;;;;;;5014810;28;20444;-81
2022/10/21 09:42:57;;;;;;;10.17;7.07;;;23.80;75.10;;;;;;5014835;28;20443;-81
2022/10/21 09:45:30;;;;;;;12.20;6.90;;;23.90;75.00;;;;;;5015780;28;20475;-82
2022/10/21 09:48:00;;;;;;;9.20;7.20;;;24.00;73.60;;;;;;5016777;28;20448;-81
2022/10/21 09:50:31;;;;;;;7.77;5.90;;;24.00;72.10;;;;;;5017846;28;20817;-83
2022/10/21 09:53:06;;;;;;;8.20;6.10;;;23.90;70.50;;;;;;5030590;28;20491;-84
2022/10/21 09:55:34;;;;;;;7.90;6.00;;;23.90;70.30;;;;;;5039741;28;20418;-85
2022/10/21 09:58:02;;;;;;;5.83;5.30;;;23.90;70.00;;;;;;5040608;28;20451;-84
2022/10/21 10:00:45;;;;;;;8.60;5.60;;;24.00;69.90;;;;;;5040354;28;20531;-84
2022/10/21 10:03:28;;;;;;;6.00;5.40;;;24.00;68.70;;;;;;5040093;28;20558;-83
2022/10/21 10:05:57;;;;;;;11.27;5.40;;;24.00;68.80;;;;;;5040034;28;20447;-84
2022/10/21 10:08:29;;;;;;;6.73;5.50;;;24.10;68.70;;;;;;5039399;28;20433;-81
2022/10/21 10:11:05;;;;;;;8.10;5.40;;;24.20;68.50;;;;;;5038623;28;20478;-82
2022/10/21 10:13:33;;;;;;;6.73;5.30;;;24.30;68.00;;;;;;5036559;28;20532;-82
2022/10/21 10:16:22;;;;;;;5.43;5.00;;;24.30;67.60;;;;;;5036404;28;20422;-82
2022/10/21 10:18:53;;;;;;;7.83;5.40;;;24.40;67.70;;;;;;5037382;28;20419;-81
2022/10/21 10:21:22;;;;;;;6.87;5.00;;;24.40;67.00;;;;;;5039125;28;20473;-82
2022/10/21 10:23:53;;;;;;;5.27;4.77;;;24.50;66.90;;;;;;5039215;28;20450;-81
2022/10/21 10:26:23;;;;;;;5.37;4.70;;;24.60;66.80;;;;;;5039621;28;20426;-82
2022/10/21 10:28:53;;;;;;;6.70;4.80;;;24.70;66.40;;;;;;5041440;28;20454;-82
2022/10/21 10:31:30;;;;;;;6.20;5.60;;;24.70;66.10;;;;;;5043481;28;20406;-82
2022/10/21 10:34:02;;;;;;;6.30;5.37;;;24.80;66.10;;;;;;5048334;28;20439;-83
2022/10/21 10:36:32;;;;;;;5.60;5.10;;;24.80;65.30;;;;;;5046902;28;20442;-82
2022/10/21 10:39:00;;;;;;;7.90;5.60;;;24.80;65.40;;;;;;5047224;28;20447;-83
2022/10/21 10:41:34;;;;;;;5.43;4.90;;;24.80;65.10;;;;;;5047640;28;20471;-83
2022/10/21 10:44:07;;;;;;;7.40;4.80;;;24.80;64.70;;;;;;5047247;28;20425;-83
2022/10/21 10:46:35;;;;;;;6.93;4.30;;;24.90;64.70;;;;;;5047183;28;20414;-84
2022/10/21 10:49:20;;;;;;;8.60;4.00;;;24.80;64.50;;;;;;5046835;28;20441;-83
2022/10/21 10:51:48;;;;;;;6.23;4.40;;;24.80;64.40;;;;;;5047009;28;20451;-83
2022/10/21 10:54:18;;;;;;;4.93;4.43;;;24.80;64.10;;;;;;5045719;28;20443;-83
2022/10/21 10:56:48;;;;;;;7.83;4.77;;;24.90;63.90;;;;;;5046190;28;20403;-83
2022/10/21 10:59:21;;;;;;;4.83;4.53;;;24.90;63.80;;;;;;5045837;28;20398;-83
2022/10/21 11:01:51;;;;;;;5.27;4.80;;;24.90;63.70;;;;;;5044706;28;20461;-83
2022/10/21 11:04:23;;;;;;;4.60;4.17;;;25.00;63.40;;;;;;5045280;28;20418;-83
2022/10/21 11:06:56;;;;;;;6.33;4.67;;;25.00;63.20;;;;;;5045709;28;20397;-83
2022/10/21 11:09:25;;;;;;;4.97;4.23;;;25.00;63.10;;;;;;5044591;28;20424;-83
2022/10/21 11:11:55;;;;;;;4.23;3.87;;;25.00;62.70;;;;;;5041605;28;20452;-83
2022/10/21 11:14:23;;;;;;;6.13;4.20;;;25.10;62.80;;;;;;5044462;28;20404;-83
2022/10/21 11:16:59;;;;;;;4.30;3.90;;;25.10;62.40;;;;;;5043917;28;20432;-83
2022/10/21 11:19:37;;;;;;;6.47;4.43;;;25.20;62.50;;;;;;5043788;28;20459;-83
2022/10/21 11:22:11;;;;;;;7.20;3.90;;;25.20;62.20;;;;;;5048247;28;20475;-83
2022/10/21 11:25:01;;;;;;;4.23;3.93;;;25.30;62.20;;;;;;5049379;28;20424;-83
2022/10/21 11:27:41;;;;;;;5.07;4.07;;;25.30;62.00;;;;;;5047792;28;20423;-84
2022/10/21 11:30:11;;;;;;;4.20;3.80;;;25.30;61.80;;;;;;5047838;28;20466;-83
2022/10/21 11:32:47;;;;;;;4.83;4.03;;;25.30;61.70;;;;;;5047858;28;20440;-84
2022/10/21 11:35:25;;;;;;;3.87;3.57;;;25.40;61.80;;;;;;5047604;28;20410;-83
2022/10/21 11:37:59;;;;;;;4.47;4.07;;;25.40;61.40;;;;;;5048655;28;20431;-83
2022/10/21 11:40:31;;;;;;;4.07;3.80;;;25.50;61.20;;;;;;5047481;28;20438;-83
2022/10/21 11:43:03;;;;;;;11.30;3.77;;;25.60;60.90;;;;;;5028623;28;20458;-83
2022/10/21 11:45:36;;;;;;;4.07;3.80;;;25.70;60.80;;;;;;5027315;28;20475;-83
2022/10/21 11:48:12;;;;;;;6.10;4.00;;;25.80;60.40;;;;;;5031180;28;20455;-83
2022/10/21 11:50:44;;;;;;;4.00;3.67;;;25.80;59.80;;;;;;5041628;28;20453;-83
2022/10/21 11:53:21;;;;;;;4.70;3.83;;;25.70;59.90;;;;;;5043431;28;20439;-80
2022/10/21 11:55:52;;;;;;;6.00;3.97;;;25.70;60.00;;;;;;5042655;28;20447;-82
2022/10/21 11:58:28;;;;;;;5.83;3.80;;;25.80;59.90;;;;;;5042820;28;20435;-82
2022/10/21 12:01:02;;;;;;;4.30;4.00;;;25.80;59.80;;;;;;5041746;28;20425;-82
2022/10/21 12:03:47;;;;;;;4.20;3.80;;;25.80;59.80;;;;;;5039763;28;20449;-81
2022/10/21 12:06:22;;;;;;;6.17;3.63;;;25.80;59.60;;;;;;5035178;28;20419;-82
2022/10/21 12:08:52;;;;;;;4.00;3.67;;;25.80;59.60;;;;;;5031382;28;20450;-82
2022/10/21 12:11:21;;;;;;;5.90;3.50;;;25.80;59.70;;;;;;5044887;28;20454;-84
2022/10/21 12:13:51;;;;;;;4.07;3.70;;;25.90;59.60;;;;;;5046346;28;20498;-83
2022/10/21 12:16:20;;;;;;;3.43;3.23;;;25.90;59.40;;;;;;5042679;28;20422;-82
2022/10/21 12:18:50;;;;;;;5.37;3.60;;;25.90;59.20;;;;;;5043994;28;20426;-82
2022/10/21 12:21:21;;;;;;;3.80;3.60;;;25.90;59.00;;;;;;5040218;28;21275;-82
2022/10/21 12:23:52;;;;;;;6.10;3.93;;;25.90;59.10;;;;;;5046600;28;20475;-82
2022/10/21 12:26:21;;;;;;;6.10;3.83;;;25.90;59.30;;;;;;5046700;28;20438;-81
2022/10/21 12:28:51;;;;;;;5.80;4.10;;;26.00;59.50;;;;;;5046701;28;20414;-82
2022/10/21 12:31:28;;;;;;;6.53;3.80;;;25.90;59.30;;;;;;5045895;28;20825;-82
2022/10/21 12:33:56;;;;;;;6.37;3.70;;;25.90;59.40;;;;;;5044573;28;20443;-82
2022/10/21 12:36:44;;;;;;;9.00;3.83;;;25.90;59.50;;;;;;5047615;28;20453;-83
2022/10/21 12:39:47;;;;;;;8.60;4.13;;;25.80;59.70;;;;;;5049865;28;20429;-83
2022/10/21 12:42:17;;;;;;;5.30;4.03;;;25.70;59.90;;;;;;5049781;28;20442;-82
2022/10/21 12:44:45;;;;;;;8.53;4.30;;;25.60;60.20;;;;;;5049669;28;20486;-81
2022/10/21 12:47:24;;;;;;;6.63;4.40;;;25.40;60.40;;;;;;5047723;28;20489;-82
2022/10/21 12:50:06;;;;;;;7.27;4.20;;;25.40;60.50;;;;;;5047612;28;20446;-84
2022/10/21 12:52:37;;;;;;;11.70;5.03;;;25.40;60.70;;;;;;5050642;28;20422;-82
2022/10/21 12:55:07;;;;;;;5.17;4.67;;;25.30;60.90;;;;;;5050403;28;20444;-82
2022/10/21 12:57:35;;;;;;;6.77;4.80;;;25.20;61.20;;;;;;5050530;28;20444;-82
2022/10/21 13:00:42;;;;;;;6.10;4.70;;;25.20;61.30;;;;;;5049276;28;20439;-82